Etusivu
METAR-TAF:

METAR-TAF

Lentoasemat :

Korfun kansainvälinen lentoasema

Korfu, Kreikka

Leveyspiiri: 39-37N, Pituuspiiri: 019-55E, korkeus merenpinnasta: 2 m

Tämänhetkinen sää

Tämä raportti tehtiin 18 minuuttia sitten, kello 21.20 UTC
Tuuli 3 kn lännestä/lounaasta
Lämpötila 18°C
Kosteus 88%
Ilmanpaine 1020 hPa
Näkyvyys 10 km tai enemmän
ei pilviä alle 1500 m:ssä eikä cumulonimbus-pilviä

METAR: LGKR 142120Z 25003KT CAVOK 18/16 Q1020 NOSIG

Aika: 00:38 (21:38 UTC)

Sääennuste

Tämä raportti tehtiin 4 tuntia ja 38 minuuttia sitten, kello 17.00 UTC
Ennuste voimassa 14. päivästä klo 18 UTC - 15. päivään klo 18 UTC
Tuuli 5 kn eri suunnista
Näkyvyys 10 km tai enemmän
Muutamia pilviä 2000 ft:n korkeudessa

TAF: LGKR 141700Z 1418/1518 VRB05KT 9999 FEW020

Säähavainnot ja -ennusteet yli 4000 lentoasemalta (METAR- ja TAF-raportit).

Käytössä olevat sääasemat on merkitty karttaan keltaisilla ja punaisilla pisteillä.

Aseta hiiri pisteen päälle nähdäksesi sääaseman nimen.

Klikkaa sitten nähdäksesi säähavainnot ja -ennusteet.

Kartan vaihtaminen: klikkaa mustalla rastilla varustettuja vihreitä pisteitä, niin voit zoomata sisään; viivalla varustettua vihreää pistettä, niin voit zoomata ulos tai vihreitä nuolia, niin pääset viereisille kartoille.


METAR-TAF: